Menno, South Dakota
Current Conditions -  °F | °C
As of 5:55 AM on Saturday 22 Nov 2014 (Local Time) from KYKN Reporting Station
Clear Clear  
Wind Chill: 20°   Ceiling: Unl
Heat Index: 28°   Visibility: 4mi
Dew Point: 27°   Wind: 9mph
Humidity: 93%   Direction: 160°SSE
Pressure: 29.78"   Gusts: NA
Location:  43.24°N, 97.58°W
Report Text: KYKN 221155Z AUTO 16008KT 4SM CLR M02/M03 A2978 RMK AO1 10040 21020 57017
Loading
Personal Weather Stations






























Interactive Weather Map New forecast layout! Learn more

10-Day Weather Forecast

Advertisements
Track Severe Weather on mobile